Time;durP1;ratioP1;P1;durP2;ratioP2;P2;SDS_P1;SDS_P2;PMS_P1;PMS_P2;Temp;Humidity;BMP_temperature;BMP_pressure;BME280_temperature;BME280_humidity;BME280_pressure;Samples;Min_cycle;Max_cycle;Signal;HPM_P1;HPM_P2
2021/01/12 00:00:31;;;;;;;94.52;45.28;;;;;;;-3.18;79.09;100015.23;120630;1150;104380;-81
2021/01/12 00:03:05;;;;;;;97.47;47.53;;;;;;;-3.21;78.64;100015.17;120524;1150;102520;-81
2021/01/12 00:05:33;;;;;;;98.60;44.35;;;;;;;-3.23;77.79;100039.79;120525;1151;104444;-82
2021/01/12 00:08:00;;;;;;;92.65;45.45;;;;;;;-3.26;78.36;99992.94;120562;1151;104381;-82
2021/01/12 00:10:27;;;;;;;86.73;43.07;;;;;;;-3.27;78.22;100007.38;120551;1151;104535;-82
2021/01/12 00:12:54;;;;;;;92.17;46.43;;;;;;;-3.25;78.31;99992.97;120589;1151;104757;-82
2021/01/12 00:15:21;;;;;;;92.73;47.10;;;;;;;-3.26;77.93;99988.70;120658;1150;104428;-81
2021/01/12 00:17:49;;;;;;;94.23;46.70;;;;;;;-3.24;77.79;99997.23;120525;1151;104497;-82
2021/01/12 00:20:16;;;;;;;96.00;44.35;;;;;;;-3.23;77.98;100003.19;120673;1150;104375;-82
2021/01/12 00:22:43;;;;;;;91.15;44.15;;;;;;;-3.25;77.52;99985.31;120559;1151;104487;-82
2021/01/12 00:25:10;;;;;;;91.53;45.83;;;;;;;-3.25;77.50;99990.41;120527;1151;104473;-82
2021/01/12 00:27:52;;;;;;;89.33;44.47;;;;;;;-3.22;77.79;99985.40;120570;1150;104439;-83
2021/01/12 00:30:22;;;;;;;92.13;44.73;;;;;;;-3.21;77.89;99976.91;120594;1150;104393;-82
2021/01/12 00:32:50;;;;;;;89.53;44.07;;;;;;;-3.22;77.37;99987.95;120584;1151;104325;-82
2021/01/12 00:35:18;;;;;;;86.87;43.37;;;;;;;-3.23;77.71;99992.99;120637;1151;103236;-82
2021/01/12 00:37:45;;;;;;;85.57;44.33;;;;;;;-3.23;77.65;99987.89;120673;1151;104452;-82
2021/01/12 00:40:13;;;;;;;84.27;41.73;;;;;;;-3.23;76.97;99993.88;120565;1150;104420;-82
2021/01/12 00:42:40;;;;;;;83.95;42.20;;;;;;;-3.24;77.30;99979.38;120627;1151;104388;-81
2021/01/12 00:45:09;;;;;;;84.53;43.93;;;;;;;-3.23;77.65;99982.79;120574;1151;104397;-81
2021/01/12 00:47:36;;;;;;;87.67;43.33;;;;;;;-3.24;77.06;99981.07;120625;1151;104393;-81
2021/01/12 00:50:04;;;;;;;88.10;44.37;;;;;;;-3.27;77.36;99979.33;120595;1151;102224;-82
2021/01/12 00:52:33;;;;;;;89.87;42.30;;;;;;;-3.29;77.30;99975.89;120588;1151;104421;-82
2021/01/12 00:55:01;;;;;;;81.73;42.67;;;;;;;-3.30;77.00;99971.63;120587;1150;104466;-82
2021/01/12 00:57:28;;;;;;;88.33;43.93;;;;;;;-3.32;77.49;99963.09;120611;1150;104454;-82
2021/01/12 00:59:55;;;;;;;83.73;40.73;;;;;;;-3.33;76.85;99966.47;120609;1150;104375;-82
2021/01/12 01:02:22;;;;;;;88.00;42.35;;;;;;;-3.37;77.23;99965.56;120638;1150;104416;-82
2021/01/12 01:04:49;;;;;;;88.40;41.17;;;;;;;-3.41;77.70;99975.64;120609;1150;104410;-81
2021/01/12 01:07:16;;;;;;;86.47;42.80;;;;;;;-3.43;77.69;99964.56;120767;1150;104423;-82
2021/01/12 01:09:44;;;;;;;87.27;43.27;;;;;;;-3.44;77.78;99983.23;120602;1151;104388;-81
2021/01/12 01:12:13;;;;;;;85.50;43.73;;;;;;;-3.46;77.21;99960.27;120639;1150;104406;-81
2021/01/12 01:14:40;;;;;;;89.60;42.80;;;;;;;-3.50;77.18;99967.83;120592;1151;104330;-81
2021/01/12 01:17:08;;;;;;;91.78;46.37;;;;;;;-3.53;77.74;99955.89;120583;1150;104447;-81
2021/01/12 01:19:36;;;;;;;93.47;45.60;;;;;;;-3.55;77.99;99943.95;120658;1151;104311;-81
2021/01/12 01:22:03;;;;;;;91.10;44.43;;;;;;;-3.58;77.97;99946.45;120657;1151;104348;-81
2021/01/12 01:24:30;;;;;;;85.57;44.47;;;;;;;-3.60;77.98;99938.73;120552;1151;104346;-81
2021/01/12 01:26:58;;;;;;;85.47;42.00;;;;;;;-3.60;77.69;99950.63;120631;1151;104484;-81
2021/01/12 01:29:25;;;;;;;92.80;45.53;;;;;;;-3.66;77.73;99939.48;120541;1151;104214;-81
2021/01/12 01:31:52;;;;;;;84.75;42.30;;;;;;;-3.66;78.15;99938.63;120600;1151;104446;-81
2021/01/12 01:34:20;;;;;;;84.37;40.80;;;;;;;-3.67;78.00;99914.83;120704;1150;104409;-82
2021/01/12 01:36:48;;;;;;;79.73;42.30;;;;;;;-3.70;77.49;99917.33;120642;1151;104324;-82
2021/01/12 01:39:15;;;;;;;79.90;42.60;;;;;;;-3.71;77.38;99913.06;120628;1151;104444;-81
2021/01/12 01:41:42;;;;;;;79.47;42.30;;;;;;;-3.70;77.86;99903.72;120612;1151;105737;-82
2021/01/12 01:44:10;;;;;;;79.73;43.07;;;;;;;-3.70;77.36;99889.29;120739;1151;104393;-82
2021/01/12 01:46:38;;;;;;;75.90;39.00;;;;;;;-3.70;77.49;99898.62;120650;1150;104324;-81
2021/01/12 01:49:06;;;;;;;82.17;40.67;;;;;;;-3.72;77.47;99883.31;120603;1151;104386;-81
2021/01/12 01:51:33;;;;;;;80.77;40.50;;;;;;;-3.73;77.84;99871.40;120596;1150;104342;-82
2021/01/12 01:54:00;;;;;;;82.80;41.87;;;;;;;-3.74;77.40;99871.37;120657;1151;104485;-82
2021/01/12 01:56:28;;;;;;;76.60;39.77;;;;;;;-3.74;77.45;99872.23;120602;1150;102474;-82
2021/01/12 01:58:55;;;;;;;71.07;39.00;;;;;;;-3.73;77.90;99873.95;120542;1151;104316;-82
2021/01/12 02:01:22;;;;;;;77.53;40.40;;;;;;;-3.75;77.78;99852.67;120605;1150;104509;-82
2021/01/12 02:04:14;;;;;;;77.82;39.60;;;;;;;-3.75;76.98;99849.27;120562;1151;104489;-82
2021/01/12 02:06:44;;;;;;;80.80;40.20;;;;;;;-3.76;77.18;99842.45;120576;1150;104511;-82
2021/01/12 02:09:36;;;;;;;81.00;39.10;;;;;;;-3.77;77.27;99841.59;120535;1151;104526;-82
2021/01/12 02:12:09;;;;;;;72.00;38.17;;;;;;;-3.80;77.25;99836.42;120653;1151;104378;-82
2021/01/12 02:14:39;;;;;;;72.87;36.43;;;;;;;-3.80;77.28;99826.23;120553;1151;104294;-82
2021/01/12 02:17:08;;;;;;;80.33;39.97;;;;;;;-3.81;77.76;99829.61;120501;1151;104322;-82
2021/01/12 02:19:38;;;;;;;81.30;39.53;;;;;;;-3.80;77.82;99831.33;120621;1151;102481;-82
2021/01/12 02:22:07;;;;;;;78.57;40.17;;;;;;;-3.79;78.05;99817.75;120592;1151;104422;-81
2021/01/12 02:24:35;;;;;;;77.70;40.30;;;;;;;-3.80;77.85;99810.08;120552;1150;104378;-83
2021/01/12 02:27:05;;;;;;;74.93;39.90;;;;;;;-3.81;77.58;99814.31;120559;1151;103237;-81
2021/01/12 02:29:32;;;;;;;74.53;37.83;;;;;;;-3.78;77.17;99804.17;120598;1150;102615;-81
2021/01/12 02:32:00;;;;;;;71.03;38.53;;;;;;;-3.81;77.38;99796.48;120639;1151;104345;-82
2021/01/12 02:34:29;;;;;;;71.27;36.23;;;;;;;-3.81;77.16;99813.46;120612;1150;104435;-82
2021/01/12 02:36:59;;;;;;;77.20;39.87;;;;;;;-3.81;77.36;99793.08;120627;1151;104458;-83
2021/01/12 02:39:26;;;;;;;77.03;39.13;;;;;;;-3.81;77.76;99790.53;120540;1150;104381;-82
2021/01/12 02:41:53;;;;;;;72.37;37.63;;;;;;;-3.79;77.24;99789.72;120700;1150;104572;-81
2021/01/12 02:44:25;;;;;;;77.40;39.67;;;;;;;-3.79;77.50;99791.41;120601;1151;104340;-82
2021/01/12 02:46:55;;;;;;;76.00;38.83;;;;;;;-3.79;77.45;99776.98;120550;1151;104299;-82
2021/01/12 02:49:24;;;;;;;77.50;38.97;;;;;;;-3.80;77.49;99765.08;120596;1150;104349;-82
2021/01/12 02:51:51;;;;;;;72.40;37.35;;;;;;;-3.81;77.32;99770.14;120604;1150;104377;-82
2021/01/12 02:54:18;;;;;;;77.57;37.90;;;;;;;-3.81;76.94;99749.77;120547;1151;104371;-82
2021/01/12 02:56:45;;;;;;;77.53;38.23;;;;;;;-3.82;77.14;99750.59;120526;1151;104406;-82
2021/01/12 02:59:12;;;;;;;74.87;39.20;;;;;;;-3.83;76.74;99741.23;120560;1151;104416;-82
2021/01/12 03:01:39;;;;;;;70.70;37.40;;;;;;;-3.83;76.74;99733.59;120641;1151;104301;-82
2021/01/12 03:04:06;;;;;;;71.00;36.87;;;;;;;-3.83;76.97;99734.45;120697;1151;104409;-82
2021/01/12 03:06:34;;;;;;;71.70;38.67;;;;;;;-3.83;77.07;99731.05;120627;1151;104433;-82
2021/01/12 03:09:03;;;;;;;72.07;38.13;;;;;;;-3.84;77.07;99712.36;120610;1151;104461;-82
2021/01/12 03:11:31;;;;;;;74.77;37.57;;;;;;;-3.81;77.31;99711.55;120595;1151;104322;-82
2021/01/12 03:13:58;;;;;;;69.37;37.87;;;;;;;-3.82;76.76;99709.83;120628;1151;104554;-81
2021/01/12 03:16:26;;;;;;;75.60;37.80;;;;;;;-3.81;77.12;99714.95;120625;1151;104460;-82
2021/01/12 03:18:53;;;;;;;75.50;37.43;;;;;;;-3.81;76.97;99702.20;120658;1150;102210;-82
2021/01/12 03:21:20;;;;;;;70.80;36.63;;;;;;;-3.81;77.02;99717.50;120638;1151;104346;-82
2021/01/12 03:23:47;;;;;;;75.60;38.67;;;;;;;-3.81;76.35;99706.45;120594;1150;104392;-82
2021/01/12 03:26:19;;;;;;;73.05;36.85;;;;;;;-3.79;76.72;99687.80;120567;1153;104433;-82
2021/01/12 03:28:47;;;;;;;73.60;37.33;;;;;;;-3.80;76.46;99680.99;120546;1151;104559;-82
2021/01/12 03:31:15;;;;;;;70.50;36.50;;;;;;;-3.78;76.75;99686.11;120636;1150;104395;-82
2021/01/12 03:33:42;;;;;;;71.33;37.20;;;;;;;-3.79;76.73;99677.61;120639;1153;104353;-83
2021/01/12 03:36:09;;;;;;;73.10;37.07;;;;;;;-3.79;76.79;99657.23;120629;1151;104395;-82
2021/01/12 03:38:37;;;;;;;73.80;36.00;;;;;;;-3.78;76.95;99658.94;120601;1151;104555;-83
2021/01/12 03:41:05;;;;;;;73.37;37.10;;;;;;;-3.80;76.29;99647.88;120569;1151;104301;-82
2021/01/12 03:43:32;;;;;;;68.87;35.33;;;;;;;-3.81;76.83;99650.39;120628;1150;104488;-82
2021/01/12 03:46:00;;;;;;;68.10;36.93;;;;;;;-3.83;76.60;99639.33;120587;1153;103130;-82
2021/01/12 03:48:28;;;;;;;69.57;36.17;;;;;;;-3.83;76.88;99635.09;120617;1151;102321;-81
2021/01/12 03:50:55;;;;;;;67.67;35.45;;;;;;;-3.84;76.57;99630.83;120643;1151;104419;-81
2021/01/12 03:53:22;;;;;;;68.27;34.93;;;;;;;-3.84;76.89;99648.66;120591;1151;105065;-83
2021/01/12 03:55:50;;;;;;;69.13;36.20;;;;;;;-3.86;77.22;99647.78;120664;1151;104304;-82
2021/01/12 03:58:18;;;;;;;73.60;38.33;;;;;;;-3.87;77.21;99643.52;120608;1151;104458;-82
2021/01/12 04:00:45;;;;;;;72.53;35.93;;;;;;;-3.87;76.69;99635.87;120698;1150;104455;-83
2021/01/12 04:03:13;;;;;;;68.23;36.00;;;;;;;-3.88;76.66;99646.05;120633;1151;104426;-81
2021/01/12 04:05:40;;;;;;;71.23;37.37;;;;;;;-3.87;77.32;99633.33;120614;1151;104554;-82
2021/01/12 04:08:09;;;;;;;69.03;35.40;;;;;;;-3.85;77.31;99633.35;120639;1150;104368;-82
2021/01/12 04:10:37;;;;;;;74.07;33.17;;;;;;;-3.83;76.71;99614.70;120675;1151;104402;-82
2021/01/12 04:13:05;;;;;;;70.53;37.53;;;;;;;-3.82;76.83;99613.02;120638;1151;104336;-82
2021/01/12 04:15:32;;;;;;;75.00;38.50;;;;;;;-3.81;76.80;99614.73;120662;1151;104383;-82
2021/01/12 04:17:59;;;;;;;70.67;34.57;;;;;;;-3.82;76.94;99597.73;120662;1151;104420;-82
2021/01/12 04:20:26;;;;;;;73.20;37.60;;;;;;;-3.84;77.09;99597.70;120655;1150;104391;-82
2021/01/12 04:22:53;;;;;;;72.62;34.53;;;;;;;-3.84;77.14;99607.05;120637;1151;104314;-82
2021/01/12 04:25:20;;;;;;;71.10;36.40;;;;;;;-3.85;76.69;99597.69;120598;1151;104424;-82
2021/01/12 04:27:47;;;;;;;68.45;34.05;;;;;;;-3.85;76.83;99601.09;120634;1151;104450;-83
2021/01/12 04:30:15;;;;;;;73.17;34.73;;;;;;;-3.84;76.86;99607.90;120668;1151;104389;-82
2021/01/12 04:32:42;;;;;;;72.90;38.10;;;;;;;-3.86;77.36;99598.52;120679;1151;103073;-82
2021/01/12 04:35:09;;;;;;;73.78;36.98;;;;;;;-3.86;76.99;99596.83;120616;1151;104426;-83
2021/01/12 04:37:36;;;;;;;65.13;34.00;;;;;;;-3.89;76.93;99576.41;120580;1151;104404;-81
2021/01/12 04:40:05;;;;;;;70.37;36.30;;;;;;;-3.86;76.91;99580.69;120564;1153;104321;-81
2021/01/12 04:42:32;;;;;;;74.85;38.45;;;;;;;-3.85;77.37;99580.70;120632;1151;104409;-81
2021/01/12 04:45:01;;;;;;;71.47;36.67;;;;;;;-3.82;76.98;99554.41;120602;1151;104379;-82
2021/01/12 04:47:28;;;;;;;68.83;36.23;;;;;;;-3.79;76.76;99560.41;120585;1151;104377;-82
2021/01/12 04:49:56;;;;;;;71.93;35.90;;;;;;;-3.78;77.36;99554.47;120542;1151;104455;-82
2021/01/12 04:52:23;;;;;;;67.12;35.90;;;;;;;-3.75;76.95;99554.55;120548;1151;104454;-82
2021/01/12 04:54:53;;;;;;;75.40;37.03;;;;;;;-3.74;76.86;99546.06;120575;1151;104327;-83
2021/01/12 04:57:20;;;;;;;69.13;36.77;;;;;;;-3.71;76.36;99551.20;120539;1151;104377;-82
2021/01/12 04:59:47;;;;;;;70.33;35.57;;;;;;;-3.69;77.08;99548.66;120611;1150;104598;-82
2021/01/12 05:02:15;;;;;;;77.00;38.03;;;;;;;-3.72;76.87;99544.39;120525;1151;104345;-82
2021/01/12 05:04:42;;;;;;;68.70;35.73;;;;;;;-3.71;76.87;99545.24;120565;1151;104429;-82
2021/01/12 05:07:10;;;;;;;71.90;35.73;;;;;;;-3.71;77.29;99551.20;120592;1151;104544;-82
2021/01/12 05:09:38;;;;;;;73.03;38.23;;;;;;;-3.69;76.80;99553.77;120558;1151;104802;-83
2021/01/12 05:12:06;;;;;;;71.43;36.57;;;;;;;-3.70;76.61;99532.52;120520;1150;104348;-82
2021/01/12 05:14:37;;;;;;;73.37;36.73;;;;;;;-3.68;76.96;99530.84;120616;1151;103086;-83
2021/01/12 05:17:05;;;;;;;73.97;37.10;;;;;;;-3.65;77.12;99530.02;120562;1150;104458;-83
2021/01/12 05:19:33;;;;;;;70.55;36.35;;;;;;;-3.66;76.95;99526.63;120725;1150;104732;-82
2021/01/12 05:22:04;;;;;;;68.70;36.17;;;;;;;-3.65;76.35;99535.13;120583;1150;104455;-82
2021/01/12 05:24:42;;;;;;;71.67;36.37;;;;;;;-3.63;76.23;99519.84;120659;1151;104429;-82
2021/01/12 05:27:10;;;;;;;75.10;36.77;;;;;;;-3.62;76.61;99532.61;120594;1151;104463;-82
2021/01/12 05:29:40;;;;;;;74.10;36.70;;;;;;;-3.59;76.36;99529.23;120560;1151;104476;-82
2021/01/12 05:32:11;;;;;;;70.00;33.97;;;;;;;-3.61;76.44;99521.58;120593;1151;104387;-83
2021/01/12 05:34:39;;;;;;;72.87;39.30;;;;;;;-3.62;77.04;99511.37;120637;1151;104402;-82
2021/01/12 05:37:08;;;;;;;71.33;36.70;;;;;;;-3.60;76.58;99518.19;120621;1151;104764;-82
2021/01/12 05:39:39;;;;;;;72.30;34.43;;;;;;;-3.61;76.67;99511.38;120543;1151;104375;-82
2021/01/12 05:42:09;;;;;;;73.90;36.43;;;;;;;-3.60;77.15;99527.53;120535;1151;104462;-82
2021/01/12 05:44:41;;;;;;;75.43;39.10;;;;;;;-3.58;76.26;99508.05;120599;1150;104452;-82
2021/01/12 05:47:15;;;;;;;74.53;33.73;;;;;;;-3.57;77.16;99502.97;120586;1150;102489;-82
2021/01/12 05:49:45;;;;;;;74.77;37.17;;;;;;;-3.57;76.35;99497.01;120586;1150;104374;-82
2021/01/12 05:52:13;;;;;;;77.93;39.50;;;;;;;-3.57;76.37;99499.56;120537;1151;104343;-82
2021/01/12 05:54:53;;;;;;;77.47;39.43;;;;;;;-3.59;77.14;99501.20;120606;1150;104176;-82
2021/01/12 05:57:23;;;;;;;72.93;36.37;;;;;;;-3.59;76.48;99488.46;120585;1151;104319;-82
2021/01/12 05:59:52;;;;;;;73.30;37.60;;;;;;;-3.57;76.66;99502.11;120598;1151;104404;-83
2021/01/12 06:02:20;;;;;;;73.37;36.83;;;;;;;-3.56;76.65;99498.72;120612;1151;104437;-83
2021/01/12 06:04:52;;;;;;;72.03;37.60;;;;;;;-3.57;77.08;99486.81;120592;1151;104451;-83
2021/01/12 06:07:19;;;;;;;74.13;38.30;;;;;;;-3.55;76.72;99485.14;120540;1151;104403;-82
2021/01/12 06:09:46;;;;;;;76.93;37.77;;;;;;;-3.55;76.75;99460.50;120587;1151;104366;-82
2021/01/12 06:12:16;;;;;;;75.60;39.90;;;;;;;-3.51;76.63;99461.39;120629;1149;104326;-82
2021/01/12 06:14:51;;;;;;;73.30;37.47;;;;;;;-3.50;77.25;99465.65;120646;1150;104433;-82
2021/01/12 06:17:19;;;;;;;79.10;39.10;;;;;;;-3.51;76.95;99476.69;120559;1151;104426;-82
2021/01/12 06:19:48;;;;;;;76.87;37.40;;;;;;;-3.54;76.37;99463.91;120525;1151;104330;-81
2021/01/12 06:22:17;;;;;;;80.00;39.60;;;;;;;-3.55;76.54;99460.50;120566;1150;104384;-81
2021/01/12 06:24:51;;;;;;;79.23;37.93;;;;;;;-3.55;76.61;99482.59;120621;1151;104308;-81
2021/01/12 06:27:32;;;;;;;78.63;38.40;;;;;;;-3.55;76.79;99457.10;120639;1151;102572;-82
2021/01/12 06:30:05;;;;;;;76.03;39.47;;;;;;;-3.54;76.82;99448.61;120642;1150;104414;-82
2021/01/12 06:32:35;;;;;;;74.67;36.37;;;;;;;-3.52;76.72;99439.29;120536;1151;104423;-83
2021/01/12 06:35:07;;;;;;;74.50;38.60;;;;;;;-3.51;76.62;99443.55;120563;1151;102569;-82
2021/01/12 06:37:43;;;;;;;73.60;37.20;;;;;;;-3.48;77.38;99434.23;120580;1151;104439;-82
2021/01/12 06:40:12;;;;;;;76.20;38.50;;;;;;;-3.46;77.48;99441.89;120596;1150;104412;-83
2021/01/12 06:42:40;;;;;;;71.53;37.87;;;;;;;-3.42;77.47;99435.98;120578;1151;104456;-82
2021/01/12 06:45:10;;;;;;;77.90;39.00;;;;;;;-3.41;76.76;99432.59;120611;1150;104265;-82
2021/01/12 06:47:38;;;;;;;78.03;38.60;;;;;;;-3.40;77.00;99429.23;120584;1150;104379;-83
2021/01/12 06:50:08;;;;;;;74.90;37.55;;;;;;;-3.39;76.98;99431.80;120589;1151;104346;-82
2021/01/12 06:52:46;;;;;;;76.23;36.37;;;;;;;-3.38;76.41;99419.91;120578;1151;104458;-82
2021/01/12 06:55:19;;;;;;;78.23;38.53;;;;;;;-3.35;76.49;99419.94;120587;1151;103254;-82
2021/01/12 06:57:51;;;;;;;75.08;38.48;;;;;;;-3.36;77.06;99423.33;120597;1150;102626;-82
2021/01/12 07:00:20;;;;;;;75.47;38.27;;;;;;;-3.35;76.84;99420.79;120528;1152;104435;-82
2021/01/12 07:02:56;;;;;;;73.80;36.30;;;;;;;-3.37;77.21;99435.22;120615;1151;102409;-82
2021/01/12 07:05:23;;;;;;;76.57;37.03;;;;;;;-3.36;76.81;99428.42;120798;1150;103251;-82
2021/01/12 07:07:53;;;;;;;75.03;38.47;;;;;;;-3.36;77.10;99416.53;120626;1150;104494;-83
2021/01/12 07:10:22;;;;;;;75.23;39.53;;;;;;;-3.33;76.93;99423.35;120648;1150;104470;-82
2021/01/12 07:12:51;;;;;;;75.20;37.57;;;;;;;-3.32;76.73;99409.77;120577;1151;104325;-82
2021/01/12 07:15:23;;;;;;;76.03;37.53;;;;;;;-3.30;76.57;99425.92;120582;1150;104944;-82
2021/01/12 07:17:54;;;;;;;74.40;38.30;;;;;;;-3.28;77.25;99423.39;120594;1150;104423;-82
2021/01/12 07:20:24;;;;;;;74.67;37.53;;;;;;;-3.26;76.84;99412.36;120611;1150;104349;-81
2021/01/12 07:23:12;;;;;;;73.00;37.27;;;;;;;-3.25;75.92;99408.97;120576;1151;104317;-83
2021/01/12 07:25:43;;;;;;;;;;;;;;;-3.25;76.25;99408.97;120580;1151;104414;-84
2021/01/12 07:28:14;;;;;;;76.95;38.85;;;;;;;-3.24;76.17;99410.67;120744;1150;104362;-84
2021/01/12 07:30:44;;;;;;;76.40;38.53;;;;;;;-3.22;76.92;99397.97;120623;1150;104311;-82
2021/01/12 07:33:20;;;;;;;79.10;38.97;;;;;;;-3.20;76.49;99381.84;120614;1150;104412;-82
2021/01/12 07:35:50;;;;;;;86.85;41.37;;;;;;;-3.18;76.79;99400.56;120649;1151;104430;-82
2021/01/12 07:38:20;;;;;;;81.53;40.07;;;;;;;-3.15;76.36;99385.28;120609;1151;104357;-82
2021/01/12 07:40:47;;;;;;;73.67;36.87;;;;;;;-3.12;76.48;99385.30;120626;1151;104455;-81
2021/01/12 07:43:16;;;;;;;81.97;39.30;;;;;;;-3.12;76.35;99377.65;120628;1151;102903;-81
2021/01/12 07:45:48;;;;;;;78.37;38.70;;;;;;;-3.10;76.06;99373.41;120531;1151;104496;-81
2021/01/12 07:48:16;;;;;;;81.73;40.17;;;;;;;-3.04;76.84;99364.98;120529;1151;104384;-81
2021/01/12 07:50:46;;;;;;;66.03;34.97;;;;;;;-2.99;76.51;99370.11;120510;1151;103554;-82
2021/01/12 07:53:14;;;;;;;67.30;36.30;;;;;;;-2.97;75.76;99369.27;120564;1151;104496;-82
2021/01/12 07:55:45;;;;;;;71.63;36.33;;;;;;;-2.93;76.22;99352.29;120502;1150;104414;-82
2021/01/12 07:58:18;;;;;;;68.57;36.80;;;;;;;-2.90;75.21;99354.86;120585;1150;104353;-82
2021/01/12 08:00:49;;;;;;;65.83;34.70;;;;;;;-2.87;75.86;99335.34;120609;1151;104940;-81
2021/01/12 08:03:39;;;;;;;69.17;33.43;;;;;;;-2.83;75.92;99342.17;120577;1150;104547;-81
2021/01/12 08:06:06;;;;;;;68.33;33.63;;;;;;;-2.77;76.19;99333.70;120647;1151;104378;-82
2021/01/12 08:08:33;;;;;;;66.50;34.03;;;;;;;-2.71;75.83;99355.84;120620;1151;104422;-82
2021/01/12 08:11:01;;;;;;;65.80;33.87;;;;;;;-2.68;74.79;99360.99;120596;1151;104442;-82
2021/01/12 08:13:29;;;;;;;68.47;32.30;;;;;;;-2.64;75.37;99339.74;120565;1153;103083;-82
2021/01/12 08:15:57;;;;;;;60.87;32.63;;;;;;;-2.56;75.10;99346.59;120645;1150;104498;-83
2021/01/12 08:18:25;;;;;;;58.55;31.05;;;;;;;-2.47;75.10;99346.66;120569;1151;104420;-82
2021/01/12 08:20:55;;;;;;;66.47;34.07;;;;;;;-2.39;74.07;99340.73;120573;1151;104436;-82
2021/01/12 08:23:23;;;;;;;60.67;31.50;;;;;;;-2.31;74.92;99346.75;120526;1151;104361;-81
2021/01/12 08:25:51;;;;;;;60.63;30.93;;;;;;;-2.24;74.43;99345.91;120603;1150;103097;-81
2021/01/12 08:28:18;;;;;;;55.13;29.60;;;;;;;-2.18;73.78;99338.27;120554;1151;104422;-83
2021/01/12 08:30:46;;;;;;;61.07;30.87;;;;;;;-2.13;73.65;99341.72;120563;1151;105328;-82
2021/01/12 08:33:40;;;;;;;61.40;30.67;;;;;;;-2.04;73.55;99358.77;120595;1153;102444;-83
2021/01/12 08:36:11;;;;;;;56.30;28.23;;;;;;;-1.96;72.97;99327.31;120538;1151;104423;-83
2021/01/12 08:38:42;;;;;;;52.97;29.53;;;;;;;-1.90;73.50;99334.98;120537;1150;104438;-83
2021/01/12 08:41:10;;;;;;;55.30;28.47;;;;;;;-1.82;72.60;99317.96;120632;1151;104410;-83
2021/01/12 08:43:40;;;;;;;55.43;28.63;;;;;;;-1.79;72.88;99304.36;120584;1151;103360;-83
2021/01/12 08:46:08;;;;;;;53.23;27.43;;;;;;;-1.73;72.57;99323.96;120613;1151;104415;-83
2021/01/12 08:48:36;;;;;;;51.43;26.37;;;;;;;-1.71;72.67;99312.89;120571;1151;104502;-83
2021/01/12 08:51:15;;;;;;;53.83;26.77;;;;;;;-1.66;72.15;99305.22;120581;1150;102378;-82
2021/01/12 08:53:42;;;;;;;53.80;27.10;;;;;;;-1.60;72.12;99310.36;120546;1151;104197;-83
2021/01/12 08:56:09;;;;;;;50.03;26.23;;;;;;;-1.53;72.05;99304.40;120544;1150;104461;-81
2021/01/12 08:58:38;;;;;;;47.10;23.63;;;;;;;-1.48;70.67;99317.18;120552;1150;104423;-81
2021/01/12 09:01:05;;;;;;;49.13;25.37;;;;;;;-1.40;71.26;99290.78;120484;1151;104973;-81
2021/01/12 09:03:35;;;;;;;50.80;27.73;;;;;;;-1.33;70.16;99287.36;120553;1151;105090;-81
2021/01/12 09:06:02;;;;;;;47.37;26.03;;;;;;;-1.26;71.54;99298.44;120648;1151;104336;-81
2021/01/12 09:08:30;;;;;;;45.30;24.37;;;;;;;-1.19;70.43;99292.48;120578;1151;104350;-81
2021/01/12 09:11:06;;;;;;;41.63;22.60;;;;;;;-1.16;70.34;99283.95;120592;1151;104308;-81
2021/01/12 09:13:34;;;;;;;47.00;25.07;;;;;;;-1.14;70.29;99275.41;120582;1150;102491;-81
2021/01/12 09:16:02;;;;;;;42.77;23.70;;;;;;;-1.08;70.21;99277.95;120511;1150;104316;-81
2021/01/12 09:18:35;;;;;;;41.37;22.00;;;;;;;-1.07;69.83;99269.45;120524;1150;104326;-82
2021/01/12 09:21:07;;;;;;;43.47;22.93;;;;;;;-1.10;70.16;99260.91;120636;1150;104330;-82
2021/01/12 09:23:37;;;;;;;43.80;22.80;;;;;;;-1.04;70.32;99266.03;120647;1152;104876;-81
2021/01/12 09:26:05;;;;;;;40.73;22.87;;;;;;;-0.96;70.39;99261.75;120592;1151;104344;-81
2021/01/12 09:28:37;;;;;;;40.07;22.50;;;;;;;-0.97;69.91;99260.89;120609;1151;104562;-81
2021/01/12 09:31:12;;;;;;;36.13;20.87;;;;;;;-0.91;69.49;99265.14;120575;1151;104403;-81
2021/01/12 09:33:58;;;;;;;41.83;22.07;;;;;;;-0.88;69.02;99260.05;120734;1150;104372;-82
2021/01/12 09:36:32;;;;;;;44.67;23.00;;;;;;;-0.74;68.49;99253.16;120627;1151;104419;-82
2021/01/12 09:39:07;;;;;;;40.33;21.43;;;;;;;-0.54;69.20;99254.80;120614;1151;104244;-83
2021/01/12 09:41:34;;;;;;;38.43;21.47;;;;;;;-0.36;68.54;99240.25;120650;1149;104323;-83
2021/01/12 09:44:01;;;;;;;39.30;21.47;;;;;;;-0.12;67.62;99236.70;120658;1150;104369;-82
2021/01/12 09:46:28;;;;;;;40.43;22.57;;;;;;;0.13;65.67;99244.25;120676;1151;104313;-82
2021/01/12 09:48:56;;;;;;;34.77;20.83;;;;;;;0.38;67.44;99238.11;120656;1151;102231;-82
2021/01/12 09:51:25;;;;;;;35.90;21.20;;;;;;;0.64;67.13;99229.34;120672;1151;104451;-82
2021/01/12 09:53:52;;;;;;;36.10;20.00;;;;;;;0.75;65.55;99230.12;120688;1151;104409;-85
2021/01/12 09:56:24;;;;;;;34.17;20.37;;;;;;;0.84;64.79;99224.88;120659;1150;104318;-85
2021/01/12 09:58:52;;;;;;;35.53;19.77;;;;;;;0.79;64.88;99221.52;120640;1153;103225;-86
2021/01/12 10:01:25;;;;;;;35.53;19.80;;;;;;;0.75;65.69;99212.16;120642;1151;104409;-85
2021/01/12 10:03:53;;;;;;;35.30;19.87;;;;;;;0.77;65.74;99210.42;120597;1151;103943;-84
2021/01/12 10:06:23;;;;;;;35.57;20.30;;;;;;;0.71;64.97;99198.47;120578;1151;104896;-84
2021/01/12 10:08:50;;;;;;;31.87;18.60;;;;;;;0.63;64.98;99204.55;120577;1150;104306;-83
2021/01/12 10:11:18;;;;;;;34.10;20.30;;;;;;;0.57;65.73;99203.75;120630;1151;104521;-83
2021/01/12 10:13:46;;;;;;;35.00;20.07;;;;;;;0.58;64.67;99195.19;120629;1151;104416;-83
2021/01/12 10:16:24;;;;;;;35.13;19.53;;;;;;;0.61;65.12;99196.88;120697;1151;102447;-84
2021/01/12 10:18:52;;;;;;;33.80;19.67;;;;;;;0.73;65.77;99183.94;120574;1151;104381;-84
2021/01/12 10:21:20;;;;;;;31.30;17.60;;;;;;;0.81;65.73;99183.85;120640;1151;104322;-83
2021/01/12 10:23:48;;;;;;;33.20;18.20;;;;;;;0.84;64.07;99176.12;120598;1151;104464;-83
2021/01/12 10:26:17;;;;;;;29.10;16.80;;;;;;;0.68;64.18;99179.69;120553;1151;103698;-83
2021/01/12 10:28:46;;;;;;;33.67;18.27;;;;;;;0.63;64.39;99194.29;120605;1151;102715;-83
2021/01/12 10:31:14;;;;;;;29.00;17.17;;;;;;;0.61;65.26;99158.38;120562;1151;104163;-83
2021/01/12 10:33:43;;;;;;;34.37;18.83;;;;;;;0.77;65.25;99164.22;120601;1151;104402;-83
2021/01/12 10:36:15;;;;;;;30.30;17.03;;;;;;;0.97;64.95;99167.43;120578;1150;104428;-83
2021/01/12 10:38:44;;;;;;;30.10;17.53;;;;;;;1.04;65.00;99153.64;120574;1151;104610;-83
2021/01/12 10:41:13;;;;;;;30.17;16.70;;;;;;;1.12;64.23;99154.42;120741;1150;104442;-83
2021/01/12 10:43:41;;;;;;;29.47;17.07;;;;;;;1.09;63.58;99149.33;120547;1151;104290;-83
2021/01/12 10:46:08;;;;;;;27.60;16.73;;;;;;;0.97;62.97;99144.33;120529;1151;104418;-83
2021/01/12 10:48:36;;;;;;;28.57;16.70;;;;;;;0.95;64.19;99138.36;120587;1151;104356;-83
2021/01/12 10:51:04;;;;;;;31.50;17.50;;;;;;;0.89;63.82;99123.00;120557;1150;104362;-83
2021/01/12 10:53:31;;;;;;;29.87;16.93;;;;;;;0.87;63.34;99127.30;120611;1151;101911;-83
2021/01/12 10:55:58;;;;;;;30.10;17.42;;;;;;;0.80;64.16;99121.41;120642;1151;104391;-83
2021/01/12 10:58:25;;;;;;;29.13;16.67;;;;;;;0.81;64.33;99129.95;120597;1150;104347;-83
2021/01/12 11:00:53;;;;;;;29.70;17.60;;;;;;;0.78;64.06;99115.44;120568;1151;102344;-83
2021/01/12 11:03:20;;;;;;;28.15;17.30;;;;;;;0.79;64.72;99113.72;120614;1151;104323;-83
2021/01/12 11:05:54;;;;;;;28.57;17.00;;;;;;;0.83;63.72;99116.23;120659;1151;104754;-83
2021/01/12 11:08:22;;;;;;;30.33;16.97;;;;;;;0.85;64.56;99109.36;120591;1151;104416;-82
2021/01/12 11:10:52;;;;;;;31.17;17.53;;;;;;;0.96;64.52;99100.70;120683;1151;103038;-83